Time;durP1;ratioP1;P1;durP2;ratioP2;P2;SDS_P1;SDS_P2;PMS_P1;PMS_P2;Temp;Humidity;BMP_temperature;BMP_pressure;BME280_temperature;BME280_humidity;BME280_pressure;Samples;Min_cycle;Max_cycle;Signal;HPM_P1;HPM_P2
2023/06/26 00:02:16;;;;;;;2.00;1.80;;;22.90;32.60;;;;;;5097406;27;20047;-79
2023/06/26 00:04:45;;;;;;;2.17;1.90;;;22.90;17.30;;;;;;5113954;27;20625;-79
2023/06/26 00:07:11;;;;;;;2.10;1.90;;;22.90;5.30;;;;;;5113984;27;20054;-79
2023/06/26 00:09:37;;;;;;;2.13;1.92;;;22.90;1.00;;;;;;5148207;27;20042;-79
2023/06/26 00:12:03;;;;;;;2.00;1.80;;;22.90;3.60;;;;;;5113062;27;20051;-79
2023/06/26 00:14:29;;;;;;;2.10;1.80;;;22.90;1.00;;;;;;5113602;27;20485;-79
2023/06/26 00:16:54;;;;;;;1.70;1.60;;;22.90;6.90;;;;;;5113677;27;20057;-79
2023/06/26 00:19:20;;;;;;;1.70;1.60;;;22.90;8.60;;;;;;5097283;27;20051;-79
2023/06/26 00:21:47;;;;;;;1.77;1.63;;;22.90;22.40;;;;;;5131175;27;20505;-79
2023/06/26 00:24:17;;;;;;;2.25;1.75;;;22.80;13.70;;;;;;5130523;27;20042;-79
2023/06/26 00:26:45;;;;;;;1.85;1.67;;;22.80;23.00;;;;;;5113700;27;20178;-78
2023/06/26 00:29:11;;;;;;;2.20;1.90;;;22.80;24.90;;;;;;5095860;27;20427;-79
2023/06/26 00:31:37;;;;;;;1.63;1.52;;;22.80;6.10;;;;;;5147674;27;20043;-79
2023/06/26 00:34:03;;;;;;;1.80;1.70;;;22.80;21.50;;;;;;5113971;27;20501;-79
2023/06/26 00:36:29;;;;;;;2.15;1.85;;;22.80;19.80;;;;;;5147797;27;20486;-79
2023/06/26 00:38:55;;;;;;;2.50;1.98;;;22.80;29.80;;;;;;5130254;27;20039;-79
2023/06/26 00:41:20;;;;;;;2.00;1.80;;;22.80;18.60;;;;;;5147492;27;20074;-79
2023/06/26 00:43:46;;;;;;;2.78;2.00;;;22.80;24.40;;;;;;5148124;27;20045;-79
2023/06/26 00:46:15;;;;;;;3.35;2.08;;;22.90;13.30;;;;;;5095518;27;20473;-79
2023/06/26 00:48:43;;;;;;;1.83;1.63;;;22.90;1.00;;;;;;5098607;28;20047;-79
2023/06/26 00:51:09;;;;;;;4.43;1.98;;;22.90;1.00;;;;;;5112060;28;20042;-79
2023/06/26 00:53:36;;;;;;;2.33;2.08;;;22.90;1.00;;;;;;5091718;28;20039;-79
2023/06/26 00:56:05;;;;;;;2.55;2.35;;;22.90;1.00;;;;;;5100388;28;20474;-79
2023/06/26 00:58:31;;;;;;;3.55;2.20;;;22.90;1.00;;;;;;5106704;28;20525;-79
2023/06/26 01:00:57;;;;;;;4.03;2.33;;;22.90;1.00;;;;;;5112779;28;20051;-79
2023/06/26 01:03:24;;;;;;;2.63;2.42;;;22.90;1.00;;;;;;5133182;27;20125;-79
2023/06/26 01:05:54;;;;;;;3.25;2.85;;;22.90;1.00;;;;;;5079083;28;20114;-79
2023/06/26 01:08:21;;;;;;;2.63;2.25;;;22.90;1.00;;;;;;5095841;28;20175;-79
2023/06/26 01:10:47;;;;;;;2.85;2.53;;;22.90;1.00;;;;;;5112630;28;20050;-79
2023/06/26 01:13:16;;;;;;;3.55;2.97;;;22.90;1.00;;;;;;5112796;28;20125;-78
2023/06/26 01:15:42;;;;;;;3.13;2.83;;;22.90;1.00;;;;;;5081583;28;20046;-79
2023/06/26 01:18:08;;;;;;;2.92;2.63;;;22.90;1.00;;;;;;5094407;28;20043;-79
2023/06/26 01:20:41;;;;;;;3.55;3.20;;;22.90;1.00;;;;;;5108998;28;20416;-79
2023/06/26 01:23:30;;;;;;;3.05;2.72;;;22.90;5.90;;;;;;5075125;28;20040;-79
2023/06/26 01:26:08;;;;;;;2.65;2.45;;;22.90;1.00;;;;;;5092249;28;20039;-79
2023/06/26 01:28:40;;;;;;;3.17;2.88;;;22.90;8.50;;;;;;5096671;28;20073;-79
2023/06/26 01:31:07;;;;;;;3.63;3.33;;;22.90;22.50;;;;;;5096022;28;20043;-79
2023/06/26 01:33:33;;;;;;;3.42;3.13;;;22.90;20.60;;;;;;5113634;28;20442;-79
2023/06/26 01:35:59;;;;;;;3.20;2.90;;;22.90;28.90;;;;;;5117251;27;20039;-79
2023/06/26 01:38:25;;;;;;;2.75;2.47;;;22.90;33.20;;;;;;5113217;28;20080;-79
2023/06/26 01:40:52;;;;;;;3.25;2.95;;;22.80;37.10;;;;;;5130153;27;20044;-78
2023/06/26 01:43:24;;;;;;;3.45;2.83;;;22.80;60.40;;;;;;5096321;28;20433;-78
2023/06/26 01:45:53;;;;;;;3.70;3.40;;;22.80;77.20;;;;;;5147276;27;20046;-78
2023/06/26 01:48:25;;;;;;;2.85;2.55;;;22.80;97.60;;;;;;5096365;28;20040;-78
2023/06/26 01:50:53;;;;;;;3.17;2.88;;;22.70;99.90;;;;;;5096110;28;20489;-78
2023/06/26 01:53:23;;;;;;;3.08;2.78;;;22.70;99.90;;;;;;5084458;28;20526;-78
2023/06/26 01:56:02;;;;;;;2.60;2.40;;;22.60;99.90;;;;;;5086923;27;20088;-78
2023/06/26 01:58:28;;;;;;;3.80;3.08;;;22.60;99.90;;;;;;5105221;27;20062;-78
2023/06/26 02:00:55;;;;;;;3.35;3.05;;;22.60;99.90;;;;;;5115192;27;20084;-78
2023/06/26 02:03:20;;;;;;;3.75;3.35;;;22.60;99.90;;;;;;5115331;27;20054;-78
2023/06/26 02:05:52;;;;;;;3.00;2.70;;;22.50;99.90;;;;;;5136498;27;20374;-78
2023/06/26 02:08:17;;;;;;;3.60;3.10;;;22.50;99.90;;;;;;5083716;28;20047;-78
2023/06/26 02:10:43;;;;;;;2.83;2.53;;;22.40;99.90;;;;;;5111570;27;20038;-78
2023/06/26 02:13:09;;;;;;;4.25;2.63;;;22.40;99.90;;;;;;5124401;27;20046;-79
2023/06/26 02:15:35;;;;;;;3.40;3.10;;;22.40;99.90;;;;;;5114664;27;20054;-78
2023/06/26 02:18:00;;;;;;;2.30;2.10;;;22.30;99.90;;;;;;5130783;27;20043;-78
2023/06/26 02:20:26;;;;;;;2.40;2.20;;;22.30;99.90;;;;;;5100586;28;20047;-78
2023/06/26 02:22:52;;;;;;;2.63;2.38;;;22.30;99.90;;;;;;5088560;27;20394;-78
2023/06/26 02:25:18;;;;;;;3.10;2.80;;;22.20;99.90;;;;;;5119618;27;20118;-78
2023/06/26 02:27:46;;;;;;;2.67;2.40;;;22.20;99.90;;;;;;5106620;28;20082;-78
2023/06/26 02:30:12;;;;;;;2.35;2.15;;;22.10;99.90;;;;;;5114246;27;20082;-78
2023/06/26 02:32:38;;;;;;;2.50;2.17;;;22.10;99.90;;;;;;5092132;28;20035;-78
2023/06/26 02:35:04;;;;;;;2.25;2.05;;;22.00;99.90;;;;;;5127675;27;20447;-78
2023/06/26 02:40:29;;;;;;;3.10;2.30;;;21.90;1.00;;;;;;5982645;22;21399;31
2023/06/26 02:46:29;;;;;;;2.35;2.15;;;21.70;6.60;;;;;;5476272;23;20485;-71
2023/06/26 02:48:54;;;;;;;2.72;2.50;;;21.60;40.50;;;;;;4889339;29;20495;-78
2023/06/26 02:51:20;;;;;;;2.40;2.20;;;21.60;61.30;;;;;;4886153;29;20039;-77
2023/06/26 02:53:46;;;;;;;2.20;2.00;;;21.60;91.90;;;;;;4915885;29;20044;-77
2023/06/26 02:56:11;;;;;;;2.45;2.22;;;21.50;99.90;;;;;;4890331;29;20051;-77
2023/06/26 02:58:37;;;;;;;2.33;2.13;;;21.50;99.90;;;;;;4897174;29;20044;-77
2023/06/26 03:01:03;;;;;;;2.40;2.20;;;21.40;99.90;;;;;;4906944;29;20209;-77
2023/06/26 03:03:28;;;;;;;2.25;2.05;;;21.40;99.90;;;;;;4894089;29;20051;-77
2023/06/26 03:05:54;;;;;;;2.67;2.00;;;21.30;99.90;;;;;;4918037;29;20130;-77
2023/06/26 03:08:20;;;;;;;2.10;1.90;;;21.40;99.90;;;;;;4898625;29;20381;-78
2023/06/26 03:10:45;;;;;;;2.70;2.50;;;21.30;99.90;;;;;;4883134;29;20040;-77
2023/06/26 03:13:11;;;;;;;2.33;2.10;;;21.30;99.90;;;;;;4898893;29;20055;-77
2023/06/26 03:15:37;;;;;;;2.20;1.88;;;21.20;99.90;;;;;;4883025;29;20047;-78
2023/06/26 03:18:02;;;;;;;2.22;2.03;;;21.30;99.90;;;;;;4868201;29;20051;-78
2023/06/26 03:20:28;;;;;;;2.53;2.08;;;21.20;99.90;;;;;;4899613;29;20514;-78
2023/06/26 03:22:54;;;;;;;2.40;2.20;;;21.20;1.00;;;;;;4869689;29;20040;-78
2023/06/26 03:25:19;;;;;;;2.38;2.10;;;21.10;12.40;;;;;;4883209;29;20175;-78
2023/06/26 03:27:45;;;;;;;2.58;2.28;;;21.10;1.00;;;;;;4898521;29;20047;-79
2023/06/26 03:30:11;;;;;;;3.10;2.80;;;21.10;99.90;;;;;;4882950;29;20056;-78
2023/06/26 03:32:37;;;;;;;3.15;2.85;;;21.00;99.90;;;;;;4898821;29;20417;-78
2023/06/26 03:35:03;;;;;;;3.08;2.78;;;21.00;99.90;;;;;;4899008;29;20059;-78
2023/06/26 03:37:29;;;;;;;3.17;2.88;;;21.00;99.90;;;;;;4882761;29;20404;-78
2023/06/26 03:39:54;;;;;;;3.40;3.10;;;21.00;99.90;;;;;;4898439;29;20079;-78
2023/06/26 03:42:20;;;;;;;3.35;3.00;;;21.00;99.90;;;;;;4898315;29;20048;-78
2023/06/26 03:44:46;;;;;;;3.25;2.95;;;21.00;99.90;;;;;;4882597;29;20047;-77
2023/06/26 03:47:11;;;;;;;3.10;2.80;;;21.00;99.90;;;;;;4897866;29;20058;-78
2023/06/26 03:49:37;;;;;;;3.38;2.80;;;21.10;99.90;;;;;;4897327;29;20052;-78
2023/06/26 03:52:03;;;;;;;3.28;2.70;;;21.10;99.90;;;;;;4890926;29;20059;-78
2023/06/26 03:54:28;;;;;;;2.70;2.47;;;21.10;99.90;;;;;;4916816;29;20048;-78
2023/06/26 03:56:54;;;;;;;3.03;2.72;;;21.10;99.90;;;;;;4885007;29;20044;-78
2023/06/26 03:59:20;;;;;;;3.75;2.78;;;21.10;1.00;;;;;;4914679;29;20095;-78
2023/06/26 04:01:46;;;;;;;3.53;3.00;;;21.10;1.00;;;;;;4916614;29;20550;-78
2023/06/26 04:04:11;;;;;;;5.50;2.95;;;21.20;1.00;;;;;;4899676;29;20039;-78
2023/06/26 04:06:37;;;;;;;3.47;2.88;;;21.20;1.00;;;;;;4885847;29;20047;-77
2023/06/26 04:09:03;;;;;;;3.25;2.90;;;21.20;1.00;;;;;;4916880;29;20040;-78
2023/06/26 04:11:30;;;;;;;2.85;2.58;;;21.20;1.00;;;;;;4917196;29;20051;-78
2023/06/26 04:13:55;;;;;;;3.42;3.13;;;21.20;1.00;;;;;;4909321;29;20462;-78
2023/06/26 04:16:25;;;;;;;3.53;3.22;;;21.20;13.60;;;;;;4887000;29;20044;-78
2023/06/26 04:18:51;;;;;;;3.40;3.10;;;21.20;24.70;;;;;;4895569;29;20056;-78
2023/06/26 04:21:17;;;;;;;3.80;3.40;;;21.20;64.20;;;;;;4912304;29;20066;-78
2023/06/26 04:23:42;;;;;;;3.92;3.40;;;21.20;97.50;;;;;;4909350;29;20040;-78
2023/06/26 04:26:13;;;;;;;5.57;4.65;;;21.20;99.90;;;;;;4900291;29;20063;-78
2023/06/26 04:28:38;;;;;;;6.70;4.93;;;21.20;96.40;;;;;;4916919;29;20067;-77
2023/06/26 04:31:04;;;;;;;5.10;3.78;;;21.20;99.90;;;;;;4908547;29;20052;-77
2023/06/26 04:33:30;;;;;;;3.90;3.50;;;21.30;99.90;;;;;;4914720;29;20048;-77
2023/06/26 04:35:56;;;;;;;3.60;3.30;;;21.30;99.90;;;;;;4915433;29;20130;-76
2023/06/26 04:38:22;;;;;;;4.22;3.83;;;21.40;97.10;;;;;;4914682;29;20172;-76
2023/06/26 04:40:48;;;;;;;3.40;3.10;;;21.40;99.90;;;;;;4897250;29;20126;-76
2023/06/26 04:43:15;;;;;;;3.72;3.17;;;21.50;99.90;;;;;;4915055;29;20043;-77
2023/06/26 04:45:40;;;;;;;4.20;3.80;;;21.50;99.90;;;;;;4879702;29;20072;-76
2023/06/26 04:48:06;;;;;;;5.05;3.80;;;21.50;1.00;;;;;;4896769;29;20102;-76
2023/06/26 04:50:33;;;;;;;7.40;4.78;;;21.50;1.00;;;;;;4915905;29;20134;-76
2023/06/26 04:52:59;;;;;;;6.95;4.35;;;21.40;74.40;;;;;;4915646;29;20527;-76
2023/06/26 04:55:25;;;;;;;4.90;3.92;;;21.40;99.90;;;;;;4897383;29;20083;-76
2023/06/26 04:57:51;;;;;;;8.77;5.20;;;21.40;99.90;;;;;;4910554;29;20152;-76
2023/06/26 05:00:17;;;;;;;8.05;4.47;;;21.20;1.00;;;;;;4911553;29;20062;-76
2023/06/26 05:02:43;;;;;;;7.95;4.28;;;21.20;2.50;;;;;;4874604;29;20051;-76
2023/06/26 05:05:10;;;;;;;7.10;4.28;;;21.10;41.50;;;;;;4919622;29;20048;-76
2023/06/26 05:07:36;;;;;;;4.57;3.70;;;21.10;99.90;;;;;;4919686;29;20047;-76
2023/06/26 05:10:02;;;;;;;4.45;3.65;;;21.10;99.90;;;;;;4922202;29;20058;-75
2023/06/26 05:12:27;;;;;;;4.88;3.38;;;21.00;99.90;;;;;;4912112;29;20055;-75
2023/06/26 05:14:53;;;;;;;5.20;3.97;;;20.90;99.90;;;;;;4897920;29;20423;-76
2023/06/26 05:17:19;;;;;;;8.88;5.80;;;20.90;99.90;;;;;;4903282;29;20067;-76
2023/06/26 05:19:44;;;;;;;6.57;4.60;;;20.70;99.90;;;;;;4905359;29;20083;-75
2023/06/26 05:22:10;;;;;;;;;;;20.60;99.90;;;;;;4889127;29;20131;-76
2023/06/26 05:24:38;;;;;;;11.43;6.43;;;20.50;99.90;;;;;;4921303;29;19929;-76
2023/06/26 05:27:05;;;;;;;11.85;7.22;;;20.50;99.90;;;;;;4920473;29;20039;-75
2023/06/26 05:29:32;;;;;;;8.93;6.15;;;20.40;99.90;;;;;;4921156;29;20046;-75
2023/06/26 05:31:59;;;;;;;11.55;6.18;;;20.40;99.90;;;;;;4920709;29;20062;-76
2023/06/26 05:34:29;;;;;;;11.23;5.95;;;20.30;99.90;;;;;;4918017;29;20123;-77
2023/06/26 05:36:58;;;;;;;9.88;5.03;;;20.20;99.90;;;;;;4920707;29;20044;-76
2023/06/26 05:39:25;;;;;;;9.32;5.25;;;20.10;99.90;;;;;;4916858;29;20058;-76
2023/06/26 05:41:51;;;;;;;10.20;5.32;;;20.00;99.90;;;;;;4897382;29;20047;-76
2023/06/26 05:44:17;;;;;;;10.07;5.20;;;19.90;99.90;;;;;;4887231;29;20048;-76
2023/06/26 05:46:43;;;;;;;;;;;19.80;99.90;;;;;;4883528;29;20054;-76
2023/06/26 05:49:09;;;;;;;9.80;4.73;;;19.80;99.90;;;;;;4904855;29;19950;-76
2023/06/26 05:51:35;;;;;;;;;;;19.70;99.90;;;;;;4885321;29;20036;-76
2023/06/26 05:54:01;;;;;;;11.50;4.50;;;19.60;99.90;;;;;;4910735;29;20052;-77
2023/06/26 05:56:26;;;;;;;;;;;19.50;99.90;;;;;;4921322;29;20570;-77
2023/06/26 05:58:53;;;;;;;14.38;4.50;;;19.50;99.90;;;;;;4904522;29;19927;-75
2023/06/26 06:01:19;;;;;;;;;;;19.40;99.90;;;;;;4919447;29;20048;-76
2023/06/26 06:03:45;;;;;;;13.30;4.32;;;19.40;99.90;;;;;;4919775;29;20026;-76
2023/06/26 06:06:11;;;;;;;12.98;4.28;;;19.40;99.90;;;;;;4919294;29;20562;-76
2023/06/26 06:08:37;;;;;;;;;;;19.40;99.90;;;;;;4922171;29;20134;-77
2023/06/26 06:11:02;;;;;;;9.23;3.50;;;19.50;99.90;;;;;;4904252;29;19922;-76
2023/06/26 06:13:28;;;;;;;;;;;19.60;99.90;;;;;;4902278;29;20066;-76
2023/06/26 06:15:55;;;;;;;13.05;3.90;;;19.60;99.90;;;;;;4915904;29;20370;-76
2023/06/26 06:18:21;;;;;;;11.15;3.92;;;19.60;99.90;;;;;;4902703;29;20050;-76
2023/06/26 06:20:46;;;;;;;;;;;19.70;99.90;;;;;;4917805;29;20048;-76
2023/06/26 06:23:12;;;;;;;13.20;3.53;;;19.60;99.90;;;;;;4902580;29;19919;-76
2023/06/26 06:25:38;;;;;;;;;;;19.70;99.90;;;;;;4917882;29;20136;-77
2023/06/26 06:28:04;;;;;;;10.27;3.10;;;19.60;99.90;;;;;;4902564;29;19922;-76
2023/06/26 06:30:30;;;;;;;11.48;3.20;;;19.70;99.90;;;;;;4918619;29;20059;-76
2023/06/26 06:32:56;;;;;;;;;;;19.70;99.90;;;;;;4918675;29;20482;-75
2023/06/26 06:35:22;;;;;;;11.10;3.05;;;19.80;99.90;;;;;;4918198;29;19933;-78
2023/06/26 06:37:48;;;;;;;;;;;19.90;99.90;;;;;;4918462;29;20050;-76
2023/06/26 06:40:14;;;;;;;9.43;3.15;;;19.90;1.00;;;;;;4902489;29;19961;-76
2023/06/26 06:42:40;;;;;;;;;;;19.90;1.00;;;;;;4918668;29;20512;-75
2023/06/26 06:45:06;;;;;;;7.95;2.42;;;20.00;99.90;;;;;;4886556;29;20383;-76
2023/06/26 06:47:32;;;;;;;10.13;2.70;;;20.20;99.90;;;;;;4914630;29;20060;-74
2023/06/26 06:49:59;;;;;;;8.88;2.67;;;20.20;99.90;;;;;;4914836;29;20058;-76
2023/06/26 06:52:24;;;;;;;7.20;2.78;;;20.20;40.20;;;;;;4916564;29;20064;-77
2023/06/26 06:54:58;;;;;;;;;;;20.20;99.90;;;;;;4916424;29;20052;-75
2023/06/26 06:57:25;;;;;;;6.40;2.50;;;20.40;1.00;;;;;;4916095;29;20385;-76
2023/06/26 06:59:50;;;;;;;4.78;2.30;;;20.40;1.00;;;;;;4914637;29;20483;-76
2023/06/26 07:02:17;;;;;;;;;;;20.50;1.00;;;;;;4915179;29;20123;-76
2023/06/26 07:04:42;;;;;;;6.30;2.23;;;20.50;99.90;;;;;;4914747;29;19918;-76
2023/06/26 07:07:13;;;;;;;7.53;2.33;;;20.40;99.90;;;;;;4914788;29;20040;-76
2023/06/26 07:09:39;;;;;;;6.65;2.17;;;20.50;99.90;;;;;;4883232;29;20119;-76
2023/06/26 07:12:05;;;;;;;;;;;20.50;99.90;;;;;;4897861;29;20131;-76
2023/06/26 07:14:30;;;;;;;4.05;1.70;;;20.60;99.90;;;;;;4897398;29;19927;-76
2023/06/26 07:16:56;;;;;;;5.90;1.90;;;20.70;89.10;;;;;;4898153;29;20071;-75
2023/06/26 07:19:22;;;;;;;5.40;2.00;;;20.80;99.90;;;;;;4882877;29;20059;-74
2023/06/26 07:21:47;;;;;;;;;;;20.80;1.00;;;;;;4883598;29;20051;-76
2023/06/26 07:24:13;;;;;;;7.35;2.20;;;20.90;99.90;;;;;;4898569;29;20593;-76
2023/06/26 07:26:39;;;;;;;4.72;1.70;;;20.90;99.90;;;;;;4882913;29;20069;-76
2023/06/26 07:29:04;;;;;;;;;;;21.00;99.90;;;;;;4898915;29;20048;-76
2023/06/26 07:31:30;;;;;;;6.72;2.00;;;21.00;86.10;;;;;;4898578;29;19974;-75
2023/06/26 07:33:56;;;;;;;;;;;21.10;16.80;;;;;;4898892;29;20567;-76
2023/06/26 07:36:22;;;;;;;9.18;2.10;;;21.10;1.00;;;;;;4898419;29;19919;-75
2023/06/26 07:38:48;;;;;;;5.18;1.92;;;20.90;1.00;;;;;;4898227;29;20040;-76
2023/06/26 07:41:13;;;;;;;5.32;1.75;;;20.90;1.00;;;;;;4882986;29;20056;-76
2023/06/26 07:43:39;;;;;;;;;;;20.80;1.00;;;;;;4883235;29;20514;-75
2023/06/26 07:46:05;;;;;;;6.03;1.90;;;20.70;85.60;;;;;;4898030;29;19982;-76
2023/06/26 07:48:30;;;;;;;3.88;1.52;;;20.80;99.90;;;;;;4898375;29;20487;-76
2023/06/26 07:50:56;;;;;;;6.38;1.80;;;20.80;1.00;;;;;;4882448;29;20055;-76
2023/06/26 07:53:22;;;;;;;;;;;20.90;99.90;;;;;;4867636;29;20123;-76
2023/06/26 07:55:47;;;;;;;5.25;1.65;;;21.00;99.90;;;;;;4897936;29;20763;-75
2023/06/26 07:58:13;;;;;;;6.28;1.30;;;21.00;99.90;;;;;;4897938;29;20051;-76
2023/06/26 08:00:40;;;;;;;4.15;1.30;;;20.90;99.90;;;;;;4882337;29;20467;-76
2023/06/26 08:03:06;;;;;;;3.30;1.33;;;20.80;99.90;;;;;;4897930;29;20048;-75
2023/06/26 08:05:31;;;;;;;4.18;1.70;;;21.00;99.90;;;;;;4882536;29;20050;-76
2023/06/26 08:07:57;;;;;;;;;;;21.00;99.90;;;;;;4867414;29;20476;-76
2023/06/26 08:10:23;;;;;;;6.05;1.77;;;21.10;99.90;;;;;;4897697;29;19926;-77
2023/06/26 08:12:50;;;;;;;4.75;1.80;;;21.20;99.90;;;;;;4897774;29;20131;-76
2023/06/26 08:15:16;;;;;;;3.92;1.75;;;21.30;99.90;;;;;;4866758;29;20039;-76
2023/06/26 08:17:42;;;;;;;4.10;1.40;;;21.10;99.90;;;;;;4882264;29;20241;-76
2023/06/26 08:20:08;;;;;;;4.15;1.60;;;21.20;99.90;;;;;;4882014;29;20583;-76
2023/06/26 08:22:34;;;;;;;3.08;1.30;;;21.20;99.90;;;;;;4897649;29;20506;-76
2023/06/26 08:25:00;;;;;;;4.10;1.58;;;21.30;99.90;;;;;;4914837;29;20044;-76
2023/06/26 08:27:25;;;;;;;2.97;1.20;;;21.10;99.90;;;;;;4897676;29;20047;-76
2023/06/26 08:29:51;;;;;;;4.40;1.70;;;21.20;99.90;;;;;;4897375;29;20044;-76
2023/06/26 08:32:17;;;;;;;4.57;1.60;;;21.30;99.90;;;;;;4897525;29;20044;-76
2023/06/26 08:34:42;;;;;;;3.75;1.45;;;21.40;99.90;;;;;;4897492;29;20048;-76
2023/06/26 08:37:11;;;;;;;5.35;1.67;;;21.60;99.90;;;;;;4897177;29;20143;-76
2023/06/26 08:39:36;;;;;;;3.85;1.38;;;21.60;99.90;;;;;;4897475;29;20521;-76
2023/06/26 08:42:02;;;;;;;4.13;1.60;;;21.40;99.90;;;;;;4897896;29;20175;-76
2023/06/26 08:44:28;;;;;;;6.32;1.80;;;21.20;99.90;;;;;;4897441;29;20503;-77
2023/06/26 08:46:54;;;;;;;2.97;1.40;;;21.20;99.90;;;;;;4897042;29;20518;-75
2023/06/26 08:49:37;;;;;;;5.38;1.60;;;21.10;99.90;;;;;;4866269;29;20059;-76
2023/06/26 08:52:27;;;;;;;6.20;1.52;;;21.20;1.00;;;;;;4897589;29;20478;-76
2023/06/26 08:54:58;;;;;;;6.35;1.50;;;21.20;99.90;;;;;;4881479;29;20063;-76
2023/06/26 08:57:25;;;;;;;2.97;1.65;;;21.00;99.90;;;;;;4881682;29;20051;-76
2023/06/26 08:59:52;;;;;;;3.65;1.80;;;21.20;99.90;;;;;;4866042;29;20461;-76
2023/06/26 09:02:18;;;;;;;4.50;1.70;;;21.10;99.90;;;;;;4897056;29;20052;-75
2023/06/26 09:04:43;;;;;;;3.78;1.50;;;21.10;99.90;;;;;;4897135;29;20059;-76
2023/06/26 09:07:09;;;;;;;3.35;1.60;;;21.20;99.90;;;;;;4914166;29;20048;-77
2023/06/26 09:09:35;;;;;;;4.18;1.63;;;21.10;99.90;;;;;;4866234;29;20139;-76
2023/06/26 09:12:03;;;;;;;2.63;1.60;;;21.20;99.90;;;;;;4897166;29;20104;-76
2023/06/26 09:14:29;;;;;;;3.10;1.52;;;21.30;99.90;;;;;;4881485;29;20146;-76
2023/06/26 09:16:55;;;;;;;3.70;1.70;;;21.70;99.90;;;;;;4896978;29;20495;-75
2023/06/26 09:19:21;;;;;;;3.05;1.55;;;21.90;21.50;;;;;;4896692;29;20056;-77
2023/06/26 09:21:50;;;;;;;6.45;1.60;;;21.80;1.00;;;;;;4881506;29;20045;-76
2023/06/26 09:24:16;;;;;;;2.95;1.50;;;22.10;1.00;;;;;;4881652;29;20400;-77
2023/06/26 09:26:44;;;;;;;3.53;1.40;;;22.20;1.00;;;;;;4897017;29;20040;-76
2023/06/26 09:29:10;;;;;;;6.50;1.90;;;22.30;1.00;;;;;;4913902;29;20141;-76
2023/06/26 09:31:39;;;;;;;4.00;1.60;;;22.40;1.00;;;;;;4897243;29;20047;-77
2023/06/26 09:34:05;;;;;;;3.63;1.67;;;22.20;1.00;;;;;;4896718;29;20508;-77
2023/06/26 09:36:36;;;;;;;4.40;1.48;;;22.00;12.30;;;;;;4866548;29;20051;-76
2023/06/26 09:39:12;;;;;;;3.33;1.55;;;22.00;1.00;;;;;;4896985;29;20107;-77
2023/06/26 09:41:38;;;;;;;4.32;1.73;;;21.70;1.00;;;;;;4896858;29;20123;-77
2023/06/26 09:44:05;;;;;;;5.10;1.90;;;21.50;1.00;;;;;;4881390;29;20208;-76
2023/06/26 09:46:31;;;;;;;5.25;1.90;;;21.70;45.70;;;;;;4881074;29;20060;-76
2023/06/26 09:49:05;;;;;;;4.75;1.42;;;21.70;1.00;;;;;;4898723;29;20606;-76
2023/06/26 09:51:35;;;;;;;5.25;1.63;;;21.90;1.00;;;;;;4900441;29;20080;-77
2023/06/26 09:54:02;;;;;;;4.97;1.90;;;22.30;1.00;;;;;;4884900;29;20214;-76
2023/06/26 09:56:29;;;;;;;3.60;2.10;;;22.30;1.00;;;;;;4885133;29;20377;-76
2023/06/26 09:59:03;;;;;;;2.78;1.35;;;22.30;1.00;;;;;;4869493;29;20050;-77
2023/06/26 10:01:30;;;;;;;5.72;2.13;;;22.50;1.00;;;;;;4869676;29;20067;-77
2023/06/26 10:03:59;;;;;;;5.30;1.70;;;22.80;99.90;;;;;;4884893;29;20048;-77
2023/06/26 10:06:33;;;;;;;3.38;1.63;;;22.70;99.90;;;;;;4900313;29;20143;-76
2023/06/26 10:09:01;;;;;;;4.32;1.70;;;22.40;99.90;;;;;;4900198;29;20052;-76
2023/06/26 10:11:41;;;;;;;2.97;1.50;;;22.60;99.90;;;;;;4900312;29;20495;-76
2023/06/26 10:14:08;;;;;;;4.70;1.58;;;22.60;99.90;;;;;;4900491;29;20055;-76
2023/06/26 10:16:39;;;;;;;3.50;1.70;;;22.50;99.90;;;;;;4884882;29;20159;-76
2023/06/26 10:19:08;;;;;;;5.15;1.60;;;22.40;99.90;;;;;;4884407;29;20048;-77
2023/06/26 10:21:38;;;;;;;4.00;1.50;;;22.70;99.90;;;;;;4884394;29;20048;-78
2023/06/26 10:24:06;;;;;;;3.45;1.90;;;23.00;99.90;;;;;;4900035;29;20047;-76
2023/06/26 10:26:36;;;;;;;4.07;1.52;;;23.10;99.90;;;;;;4899831;29;20103;-76
2023/06/26 10:29:03;;;;;;;3.25;1.67;;;23.40;99.90;;;;;;4899958;29;20056;-76
2023/06/26 10:31:29;;;;;;;4.63;2.00;;;23.30;99.90;;;;;;4899597;29;20048;-74
2023/06/26 10:33:55;;;;;;;3.92;1.98;;;22.90;99.90;;;;;;4899842;29;20094;-74
2023/06/26 10:36:28;;;;;;;5.25;2.15;;;22.60;99.90;;;;;;4899612;29;20472;-74
2023/06/26 10:39:05;;;;;;;3.60;1.95;;;22.20;99.90;;;;;;4899334;29;20052;-75
2023/06/26 10:41:43;;;;;;;2.92;2.05;;;22.20;99.90;;;;;;4899527;29;20044;-75
2023/06/26 10:44:10;;;;;;;6.38;2.22;;;22.10;99.90;;;;;;4899395;29;20056;-76
2023/06/26 10:46:58;;;;;;;5.07;1.80;;;21.90;99.90;;;;;;4883797;29;20048;-75
2023/06/26 10:49:29;;;;;;;5.22;1.90;;;22.30;99.90;;;;;;4899283;29;20502;-75
2023/06/26 10:51:57;;;;;;;3.60;1.85;;;22.70;99.90;;;;;;4899453;29;20063;-76
2023/06/26 10:54:23;;;;;;;2.92;1.65;;;22.90;99.90;;;;;;4884181;29;20063;-76
2023/06/26 10:56:50;;;;;;;3.72;1.52;;;22.90;99.90;;;;;;4899099;29;20108;-76
2023/06/26 10:59:21;;;;;;;3.83;1.50;;;22.80;99.90;;;;;;4898419;29;20066;-75
2023/06/26 11:02:06;;;;;;;3.47;1.77;;;22.40;99.90;;;;;;4899526;29;20143;-76
2023/06/26 11:04:45;;;;;;;4.47;1.58;;;22.50;99.90;;;;;;4899433;29;20132;-77
2023/06/26 11:07:22;;;;;;;4.68;1.92;;;23.00;99.90;;;;;;4899232;29;20096;-74
2023/06/26 11:09:56;;;;;;;3.63;1.60;;;22.40;99.90;;;;;;4899269;29;20059;-76
2023/06/26 11:12:44;;;;;;;3.78;1.75;;;22.50;99.90;;;;;;4899105;29;20134;-75
2023/06/26 11:15:12;;;;;;;5.22;1.50;;;22.90;95.30;;;;;;4883291;29;20079;-74
2023/06/26 11:17:39;;;;;;;3.33;1.20;;;23.10;79.00;;;;;;4899225;29;20048;-75
2023/06/26 11:20:12;;;;;;;3.45;1.65;;;23.40;81.70;;;;;;4867913;29;20080;-76
2023/06/26 11:22:40;;;;;;;4.60;1.65;;;23.30;77.00;;;;;;4883305;29;20058;-76
2023/06/26 11:25:06;;;;;;;4.50;1.80;;;22.60;99.90;;;;;;4898636;29;20044;-76
2023/06/26 11:27:38;;;;;;;3.22;1.45;;;22.40;99.90;;;;;;4883252;29;20051;-75
2023/06/26 11:30:11;;;;;;;3.85;1.30;;;22.40;99.90;;;;;;4898683;29;20059;-76
2023/06/26 11:32:37;;;;;;;5.20;1.50;;;22.40;91.60;;;;;;4883432;29;20387;-74
2023/06/26 11:35:04;;;;;;;5.10;1.40;;;21.90;99.90;;;;;;4898646;29;20047;-76
2023/06/26 11:37:31;;;;;;;5.32;1.65;;;22.10;99.90;;;;;;4898331;29;20047;-76
2023/06/26 11:39:57;;;;;;;2.97;1.20;;;22.30;99.90;;;;;;4883210;29;20139;-76
2023/06/26 11:42:25;;;;;;;3.33;1.40;;;22.10;95.70;;;;;;4867439;29;20539;-75
2023/06/26 11:44:51;;;;;;;7.03;1.10;;;22.10;93.10;;;;;;4882713;29;20559;-76
2023/06/26 11:47:18;;;;;;;4.32;1.20;;;22.00;99.90;;;;;;4866906;29;20435;-76
2023/06/26 11:49:45;;;;;;;4.78;1.40;;;22.60;95.40;;;;;;4882468;29;20048;-75
2023/06/26 11:52:12;;;;;;;2.67;1.13;;;22.60;71.30;;;;;;4898570;29;20051;-75
2023/06/26 11:54:38;;;;;;;3.40;1.50;;;22.70;96.90;;;;;;4898362;29;20044;-76
2023/06/26 11:57:05;;;;;;;4.07;1.27;;;22.30;68.80;;;;;;4898513;29;20048;-76
2023/06/26 11:59:40;;;;;;;3.38;1.20;;;22.20;99.90;;;;;;4882350;29;20115;-76
2023/06/26 12:02:08;;;;;;;5.30;1.43;;;22.40;89.10;;;;;;4882840;29;20127;-75
2023/06/26 12:04:41;;;;;;;4.10;1.30;;;22.60;56.80;;;;;;4898038;29;20288;-76
2023/06/26 12:07:09;;;;;;;5.70;1.52;;;22.90;30.00;;;;;;4897910;29;20059;-76
2023/06/26 12:09:43;;;;;;;3.97;1.17;;;23.10;6.50;;;;;;4898018;29;20098;-76
2023/06/26 12:12:10;;;;;;;4.45;1.30;;;22.90;20.50;;;;;;4897359;29;20078;-76
2023/06/26 12:14:36;;;;;;;4.50;1.10;;;22.70;1.00;;;;;;4898114;29;20044;-76
2023/06/26 12:17:13;;;;;;;5.20;1.30;;;22.60;50.10;;;;;;4898012;29;20179;-75
2023/06/26 12:19:43;;;;;;;5.68;1.20;;;22.60;2.50;;;;;;4897832;29;20056;-75
2023/06/26 12:22:10;;;;;;;5.10;1.42;;;22.40;17.90;;;;;;4882019;29;20076;-76
2023/06/26 12:24:38;;;;;;;5.13;1.40;;;22.40;8.50;;;;;;4882563;29;20367;-76
2023/06/26 12:27:09;;;;;;;5.63;1.27;;;22.20;23.90;;;;;;4882315;29;20056;-76
2023/06/26 12:29:35;;;;;;;4.35;1.38;;;22.10;23.70;;;;;;4897548;29;20052;-75
2023/06/26 12:32:01;;;;;;;4.97;1.73;;;22.10;23.30;;;;;;4882229;29;20048;-77
2023/06/26 12:34:31;;;;;;;5.07;1.48;;;22.20;27.80;;;;;;4882226;29;20103;-76
2023/06/26 12:37:04;;;;;;;5.63;1.58;;;22.30;61.30;;;;;;4897686;29;20047;-76
2023/06/26 12:39:44;;;;;;;4.75;1.45;;;22.60;43.50;;;;;;4897315;29;20044;-76
2023/06/26 12:42:14;;;;;;;3.47;1.27;;;22.80;1.00;;;;;;4882630;29;20075;-75
2023/06/26 12:44:40;;;;;;;4.53;1.35;;;22.90;1.00;;;;;;4897325;29;20044;-75
2023/06/26 12:47:10;;;;;;;4.35;1.30;;;23.00;1.00;;;;;;4896321;29;20131;-75
2023/06/26 12:49:37;;;;;;;7.25;1.80;;;22.60;1.00;;;;;;4897525;29;20089;-76
2023/06/26 12:52:09;;;;;;;4.55;1.40;;;22.20;1.00;;;;;;4881849;29;20051;-76
2023/06/26 12:54:36;;;;;;;4.88;1.38;;;21.90;1.00;;;;;;4914495;29;20048;-76
2023/06/26 12:57:03;;;;;;;4.32;1.25;;;21.70;1.00;;;;;;4897447;29;20040;-76
2023/06/26 12:59:31;;;;;;;2.80;1.20;;;21.80;1.00;;;;;;4914681;29;20103;-76
2023/06/26 13:01:57;;;;;;;5.63;1.60;;;21.70;1.00;;;;;;4914971;29;20067;-76
2023/06/26 13:04:23;;;;;;;5.30;1.42;;;21.60;1.00;;;;;;4897509;29;20048;-75